Time;durP1;ratioP1;P1;durP2;ratioP2;P2;SDS_P1;SDS_P2;PMS_P1;PMS_P2;Temp;Humidity;BMP_temperature;BMP_pressure;BME280_temperature;BME280_humidity;BME280_pressure;Samples;Min_cycle;Max_cycle;Signal;HPM_P1;HPM_P2
2022/04/07 00:01:29;;;;;;;12.40;2.30;;;8.80;99.90;;;;;;5043288;28;20044;-83
2022/04/07 00:03:56;;;;;;;10.50;2.20;;;8.90;99.90;;;;;;5041931;28;20048;-83
2022/04/07 00:06:21;;;;;;;13.07;2.20;;;8.80;99.90;;;;;;5059578;28;20132;-83
2022/04/07 00:08:47;;;;;;;10.85;2.47;;;9.70;99.90;;;;;;5041631;28;20083;-84
2022/04/07 00:11:12;;;;;;;15.68;2.70;;;8.70;99.90;;;;;;5040995;28;20037;-83
2022/04/07 00:13:38;;;;;;;12.77;2.80;;;8.80;99.90;;;;;;5024754;28;20045;-83
2022/04/07 00:16:04;;;;;;;13.23;3.13;;;8.60;99.90;;;;;;5040850;28;20041;-84
2022/04/07 00:18:36;;;;;;;12.98;2.53;;;8.80;99.90;;;;;;5041238;28;20052;-84
2022/04/07 00:21:06;;;;;;;15.88;3.10;;;9.50;99.90;;;;;;5060026;28;20044;-83
2022/04/07 00:23:32;;;;;;;12.93;2.70;;;8.90;99.90;;;;;;5041523;28;20045;-84
2022/04/07 00:25:58;;;;;;;14.75;2.45;;;8.80;99.90;;;;;;5041402;28;20507;-83
2022/04/07 00:28:23;;;;;;;15.30;2.90;;;8.70;99.90;;;;;;5043341;28;20040;-84
2022/04/07 00:30:49;;;;;;;14.05;3.00;;;8.70;99.90;;;;;;5045195;28;20053;-83
2022/04/07 00:33:15;;;;;;;16.48;2.83;;;8.70;99.90;;;;;;5065179;28;20076;-83
2022/04/07 00:35:41;;;;;;;15.70;2.70;;;8.80;99.90;;;;;;5050982;28;20077;-83
2022/04/07 00:38:06;;;;;;;11.77;2.70;;;9.00;99.90;;;;;;5051807;28;20103;-83
2022/04/07 00:40:32;;;;;;;12.25;2.65;;;8.80;99.90;;;;;;5051550;28;20041;-83
2022/04/07 00:42:58;;;;;;;18.38;2.60;;;9.50;99.90;;;;;;5050739;28;20107;-83
2022/04/07 00:45:24;;;;;;;16.88;2.72;;;9.60;99.90;;;;;;5066179;28;20041;-83
2022/04/07 00:47:51;;;;;;;12.98;2.20;;;8.90;99.90;;;;;;5046973;28;20075;-83
2022/04/07 00:50:19;;;;;;;13.50;2.78;;;9.40;99.90;;;;;;5063340;28;20075;-83
2022/04/07 00:52:47;;;;;;;15.82;2.72;;;8.90;99.90;;;;;;5044085;28;20040;-83
2022/04/07 00:55:14;;;;;;;11.43;2.67;;;9.10;99.90;;;;;;5045050;28;20085;-83
2022/04/07 00:57:41;;;;;;;12.82;2.72;;;9.40;99.90;;;;;;5029679;28;20052;-84
2022/04/07 01:00:08;;;;;;;12.93;2.45;;;8.80;99.90;;;;;;5063745;28;20037;-83
2022/04/07 01:02:35;;;;;;;13.68;3.47;;;8.80;99.90;;;;;;5044567;28;20045;-84
2022/04/07 01:05:05;;;;;;;16.02;3.85;;;9.30;99.90;;;;;;5029034;28;20084;-83
2022/04/07 01:07:36;;;;;;;14.38;3.50;;;8.70;99.90;;;;;;5046965;28;20088;-81
2022/04/07 01:10:04;;;;;;;12.75;2.88;;;8.80;99.90;;;;;;5065340;28;20098;-81
2022/04/07 01:12:29;;;;;;;14.88;3.33;;;8.80;99.90;;;;;;5046254;28;20124;-81
2022/04/07 01:15:00;;;;;;;15.00;2.85;;;8.80;99.90;;;;;;5046617;28;20452;-80
2022/04/07 01:17:27;;;;;;;13.32;3.15;;;8.80;99.90;;;;;;5044784;28;20045;-81
2022/04/07 01:19:55;;;;;;;20.77;3.60;;;8.70;99.90;;;;;;5045691;28;20045;-82
2022/04/07 01:22:22;;;;;;;13.20;3.30;;;8.70;99.90;;;;;;5045339;28;20049;-82
2022/04/07 01:24:47;;;;;;;16.38;4.35;;;9.50;99.90;;;;;;5043850;28;20477;-82
2022/04/07 01:27:15;;;;;;;13.88;3.33;;;9.30;99.90;;;;;;5027821;28;20037;-82
2022/04/07 01:29:42;;;;;;;17.58;3.33;;;8.70;99.90;;;;;;5045640;28;20488;-81
2022/04/07 01:32:24;;;;;;;16.23;3.30;;;8.70;99.90;;;;;;5046114;28;20048;-81
2022/04/07 01:34:50;;;;;;;16.23;3.13;;;8.70;99.90;;;;;;5049803;28;20041;-81
2022/04/07 01:37:18;;;;;;;14.48;3.42;;;8.80;99.90;;;;;;5068573;28;20083;-81
2022/04/07 01:39:44;;;;;;;14.90;3.92;;;8.80;99.90;;;;;;5044314;28;20040;-82
2022/04/07 01:42:13;;;;;;;17.23;3.20;;;8.90;99.90;;;;;;5062883;28;20041;-82
2022/04/07 01:44:44;;;;;;;13.98;3.47;;;8.80;99.90;;;;;;5045512;28;20041;-82
2022/04/07 01:47:14;;;;;;;15.23;2.80;;;9.10;99.90;;;;;;5045936;28;20496;-82
2022/04/07 01:49:44;;;;;;;14.75;2.60;;;9.40;99.90;;;;;;5045550;28;20044;-81
2022/04/07 01:52:12;;;;;;;21.83;3.42;;;8.90;99.90;;;;;;5045437;28;20041;-81
2022/04/07 01:54:42;;;;;;;16.42;3.20;;;9.20;99.90;;;;;;5027782;28;20049;-82
2022/04/07 01:57:09;;;;;;;14.63;2.95;;;9.00;99.90;;;;;;5043398;28;20091;-82
2022/04/07 01:59:36;;;;;;;15.82;2.88;;;8.90;99.90;;;;;;5044561;28;20520;-82
2022/04/07 02:02:01;;;;;;;13.27;2.60;;;9.00;99.90;;;;;;5045489;28;20079;-82
2022/04/07 02:04:27;;;;;;;20.65;3.38;;;9.00;99.90;;;;;;5042371;28;20110;-82
2022/04/07 02:06:53;;;;;;;17.05;2.70;;;9.00;99.90;;;;;;5043938;28;20052;-82
2022/04/07 02:09:19;;;;;;;13.55;2.80;;;8.90;99.90;;;;;;5026360;28;20051;-82
2022/04/07 02:11:45;;;;;;;13.00;3.10;;;9.00;99.90;;;;;;5041220;28;20033;-82
2022/04/07 02:14:11;;;;;;;19.77;3.20;;;8.90;99.90;;;;;;5041866;28;20093;-82
2022/04/07 02:16:36;;;;;;;20.55;3.40;;;8.90;99.90;;;;;;5059806;28;20090;-82
2022/04/07 02:19:02;;;;;;;13.38;2.80;;;9.00;99.90;;;;;;5042497;28;20056;-81
2022/04/07 02:21:27;;;;;;;19.20;3.63;;;8.90;99.90;;;;;;5041455;28;20076;-82
2022/04/07 02:23:53;;;;;;;18.92;3.25;;;9.00;99.90;;;;;;5040806;28;20044;-82
2022/04/07 02:26:19;;;;;;;14.48;3.20;;;8.90;99.90;;;;;;5042062;28;20124;-83
2022/04/07 02:28:45;;;;;;;16.98;3.47;;;8.80;99.90;;;;;;5025803;28;20048;-82
2022/04/07 02:31:11;;;;;;;18.95;3.50;;;9.00;99.90;;;;;;5060503;28;20056;-82
2022/04/07 02:33:38;;;;;;;11.57;3.15;;;9.00;99.90;;;;;;5041653;28;20067;-82
2022/04/07 02:36:05;;;;;;;15.90;3.40;;;9.00;99.90;;;;;;5024548;28;20052;-83
2022/04/07 02:38:31;;;;;;;17.83;3.58;;;9.00;99.90;;;;;;5025641;28;20107;-82
2022/04/07 02:40:57;;;;;;;13.13;3.38;;;9.00;99.90;;;;;;5060411;28;20053;-82
2022/04/07 02:43:22;;;;;;;14.52;3.58;;;9.00;99.90;;;;;;5041270;28;20036;-82
2022/04/07 02:45:48;;;;;;;18.15;3.47;;;9.10;99.90;;;;;;5025326;28;20473;-82
2022/04/07 02:48:14;;;;;;;18.60;2.85;;;9.00;99.90;;;;;;5047875;28;20043;-82
2022/04/07 02:50:39;;;;;;;14.57;3.00;;;9.20;99.90;;;;;;5043316;28;20064;-82
2022/04/07 02:53:05;;;;;;;14.25;3.25;;;9.40;99.90;;;;;;5023411;28;20472;-83
2022/04/07 02:55:31;;;;;;;12.23;2.97;;;9.00;99.90;;;;;;5024616;28;20063;-83
2022/04/07 02:57:59;;;;;;;15.10;3.58;;;9.00;99.90;;;;;;5042414;28;20086;-82
2022/04/07 03:00:26;;;;;;;15.90;3.53;;;9.00;99.90;;;;;;5041100;28;20059;-82
2022/04/07 03:02:51;;;;;;;14.10;3.58;;;9.00;99.90;;;;;;5040064;28;20123;-83
2022/04/07 03:05:17;;;;;;;16.80;3.45;;;8.90;99.90;;;;;;5039715;28;20186;-82
2022/04/07 03:07:43;;;;;;;17.05;3.53;;;8.90;99.90;;;;;;5024384;28;20076;-83
2022/04/07 03:10:09;;;;;;;12.82;3.00;;;8.90;99.90;;;;;;5062125;28;20118;-82
2022/04/07 03:12:35;;;;;;;18.77;3.20;;;8.90;99.90;;;;;;5065063;28;20477;-83
2022/04/07 03:15:02;;;;;;;21.38;3.45;;;9.40;99.90;;;;;;5041684;28;20037;-83
2022/04/07 03:17:27;;;;;;;22.58;3.80;;;8.90;99.90;;;;;;5041029;28;20044;-83
2022/04/07 03:19:53;;;;;;;12.52;2.83;;;8.90;99.90;;;;;;5039979;28;20036;-83
2022/04/07 03:22:19;;;;;;;16.13;3.45;;;8.90;99.90;;;;;;5039812;28;20557;-83
2022/04/07 03:24:46;;;;;;;17.17;3.30;;;8.90;99.90;;;;;;5039835;28;20045;-83
2022/04/07 03:27:12;;;;;;;19.95;3.97;;;8.90;99.90;;;;;;5042545;28;20049;-83
2022/04/07 03:29:37;;;;;;;17.73;3.20;;;8.90;99.90;;;;;;5041962;28;20044;-83
2022/04/07 03:32:04;;;;;;;14.43;3.58;;;8.90;99.90;;;;;;5040591;28;20079;-83
2022/04/07 03:34:30;;;;;;;15.70;3.05;;;8.90;99.90;;;;;;5023373;28;20485;-83
2022/04/07 03:36:56;;;;;;;18.38;3.28;;;9.00;99.90;;;;;;5023254;28;20044;-83
2022/04/07 03:39:22;;;;;;;17.60;3.35;;;8.90;99.90;;;;;;5058434;28;20057;-83
2022/04/07 03:41:47;;;;;;;13.07;2.78;;;8.80;99.90;;;;;;5040827;28;20055;-83
2022/04/07 03:44:13;;;;;;;12.07;2.72;;;9.40;99.90;;;;;;5023959;28;20045;-83
2022/04/07 03:46:39;;;;;;;14.88;3.00;;;8.80;99.90;;;;;;5058580;28;20079;-83
2022/04/07 03:49:05;;;;;;;12.93;2.70;;;8.90;99.90;;;;;;5058219;28;20052;-83
2022/04/07 03:51:31;;;;;;;21.10;4.35;;;8.90;99.90;;;;;;5061441;28;20049;-83
2022/04/07 03:53:57;;;;;;;23.50;4.60;;;9.10;99.90;;;;;;5040215;28;20099;-83
2022/04/07 03:56:22;;;;;;;16.55;3.15;;;8.80;99.90;;;;;;5024253;28;20120;-83
2022/04/07 03:58:48;;;;;;;18.27;4.38;;;8.80;99.90;;;;;;5040129;28;20044;-83
2022/04/07 04:01:14;;;;;;;22.85;3.83;;;8.80;99.90;;;;;;5040449;28;20049;-83
2022/04/07 04:03:41;;;;;;;16.98;4.28;;;8.70;99.90;;;;;;5041012;28;20128;-83
2022/04/07 04:06:06;;;;;;;28.40;4.75;;;8.70;99.90;;;;;;5043336;28;20041;-82
2022/04/07 04:08:32;;;;;;;28.05;4.72;;;8.80;99.90;;;;;;5009842;28;20516;-83
2022/04/07 04:10:58;;;;;;;19.58;3.80;;;8.50;99.90;;;;;;5042829;28;20187;-83
2022/04/07 04:13:25;;;;;;;20.98;3.58;;;9.00;99.90;;;;;;5064710;28;20092;-82
2022/04/07 04:15:51;;;;;;;26.40;4.40;;;8.70;99.90;;;;;;5048211;28;20056;-83
2022/04/07 04:18:17;;;;;;;21.17;4.20;;;8.60;99.90;;;;;;5042969;28;20099;-83
2022/04/07 04:20:42;;;;;;;31.88;5.18;;;8.70;99.90;;;;;;5042710;28;20503;-83
2022/04/07 04:23:08;;;;;;;27.50;4.13;;;8.60;99.90;;;;;;5059703;28;20105;-82
2022/04/07 04:25:33;;;;;;;26.42;4.30;;;8.70;99.90;;;;;;5041748;28;20503;-83
2022/04/07 04:27:59;;;;;;;28.42;5.05;;;8.20;99.90;;;;;;5040895;28;20037;-83
2022/04/07 04:30:25;;;;;;;26.83;4.82;;;8.60;99.90;;;;;;5040145;28;20137;-83
2022/04/07 04:32:52;;;;;;;23.13;4.25;;;8.60;99.90;;;;;;5041452;28;20400;-83
2022/04/07 04:35:18;;;;;;;32.25;4.93;;;8.60;99.90;;;;;;5042960;28;20087;-83
2022/04/07 04:37:43;;;;;;;19.33;4.80;;;8.60;99.90;;;;;;5041150;28;20053;-83
2022/04/07 04:40:09;;;;;;;22.60;4.65;;;8.70;99.90;;;;;;5042234;28;20444;-83
2022/04/07 04:42:35;;;;;;;26.75;5.22;;;8.60;99.90;;;;;;5025626;28;20370;-83
2022/04/07 04:45:01;;;;;;;19.40;4.03;;;9.10;99.90;;;;;;5042969;28;20045;-83
2022/04/07 04:47:26;;;;;;;22.58;4.35;;;8.60;99.90;;;;;;5026288;28;20029;-82
2022/04/07 04:49:52;;;;;;;24.42;4.18;;;8.50;99.90;;;;;;5060681;28;20476;-82
2022/04/07 04:52:19;;;;;;;16.85;3.33;;;9.70;99.90;;;;;;5042708;28;20091;-82
2022/04/07 04:54:45;;;;;;;16.92;3.78;;;8.30;99.90;;;;;;5043735;28;20400;-83
2022/04/07 04:57:10;;;;;;;14.55;2.25;;;8.60;99.90;;;;;;5024883;28;20101;-82
2022/04/07 04:59:36;;;;;;;11.65;2.05;;;8.10;99.90;;;;;;5041523;28;20049;-82
2022/04/07 05:02:04;;;;;;;20.23;2.83;;;8.00;99.90;;;;;;5041922;28;20083;-82
2022/04/07 05:04:29;;;;;;;12.82;2.35;;;7.60;99.90;;;;;;5025761;28;20056;-83
2022/04/07 05:06:56;;;;;;;10.88;2.00;;;8.00;99.90;;;;;;5024771;28;20041;-82
2022/04/07 05:09:21;;;;;;;7.63;1.80;;;6.70;99.90;;;;;;5041389;28;20041;-83
2022/04/07 05:11:47;;;;;;;5.70;1.38;;;7.00;99.90;;;;;;5025378;28;20071;-83
2022/04/07 05:14:12;;;;;;;8.48;1.63;;;6.60;99.90;;;;;;5044285;28;20041;-83
2022/04/07 05:16:38;;;;;;;7.72;1.73;;;6.60;99.90;;;;;;5064479;28;20041;-82
2022/04/07 05:19:04;;;;;;;8.38;1.83;;;6.10;99.90;;;;;;5029016;28;20545;-82
2022/04/07 05:21:29;;;;;;;12.05;1.85;;;6.00;99.90;;;;;;5028679;28;20041;-83
2022/04/07 05:23:55;;;;;;;9.82;1.88;;;5.80;99.90;;;;;;5044903;28;20087;-82
2022/04/07 05:26:21;;;;;;;8.82;1.70;;;7.20;99.90;;;;;;5027658;28;20102;-82
2022/04/07 05:28:46;;;;;;;8.13;1.98;;;5.80;99.90;;;;;;5083494;22;20049;-82
2022/04/07 05:31:12;;;;;;;12.48;2.28;;;5.80;99.90;;;;;;5081352;28;20041;-82
2022/04/07 05:33:38;;;;;;;12.75;2.30;;;5.80;99.90;;;;;;5081642;28;20032;-82
2022/04/07 05:36:04;;;;;;;8.70;1.40;;;5.80;99.90;;;;;;5065731;28;20084;-82
2022/04/07 05:38:29;;;;;;;3.78;1.13;;;5.70;99.90;;;;;;5081674;28;20096;-83
2022/04/07 05:40:56;;;;;;;7.43;1.33;;;5.60;99.90;;;;;;5081962;28;20049;-82
2022/04/07 05:43:22;;;;;;;7.75;1.42;;;5.50;99.90;;;;;;5064425;28;20041;-83
2022/04/07 05:45:50;;;;;;;8.43;1.50;;;5.60;99.90;;;;;;5081707;28;20052;-82
2022/04/07 05:48:16;;;;;;;10.35;1.45;;;6.00;99.90;;;;;;5081866;28;20100;-83
2022/04/07 05:50:42;;;;;;;6.72;1.40;;;5.50;99.90;;;;;;5065000;28;20040;-82
2022/04/07 05:53:07;;;;;;;7.78;1.30;;;5.50;99.90;;;;;;5082711;28;20044;-82
2022/04/07 05:55:33;;;;;;;6.18;1.25;;;5.40;99.90;;;;;;5080498;28;20048;-82
2022/04/07 05:58:04;;;;;;;8.25;1.33;;;5.70;99.90;;;;;;5064531;28;20562;-82
2022/04/07 06:00:29;;;;;;;8.73;1.25;;;5.40;99.90;;;;;;5083271;28;20044;-84
2022/04/07 06:02:55;;;;;;;7.95;1.60;;;5.40;99.90;;;;;;5080978;28;20046;-83
2022/04/07 06:05:21;;;;;;;5.47;1.23;;;5.70;99.90;;;;;;5080360;28;20041;-83
2022/04/07 06:07:47;;;;;;;5.80;1.05;;;5.30;99.90;;;;;;5078452;28;20087;-83
2022/04/07 06:10:14;;;;;;;3.70;0.98;;;5.30;99.90;;;;;;5081880;28;20390;-82
2022/04/07 06:12:42;;;;;;;4.47;0.85;;;5.30;99.90;;;;;;5063583;28;20048;-83
2022/04/07 06:15:11;;;;;;;4.35;1.15;;;6.00;99.90;;;;;;5064131;28;20033;-83
2022/04/07 06:17:39;;;;;;;7.22;1.00;;;5.40;99.90;;;;;;5063049;28;20106;-83
2022/04/07 06:20:09;;;;;;;2.17;0.80;;;5.50;99.90;;;;;;5080865;28;20044;-83
2022/04/07 06:22:35;;;;;;;7.95;1.00;;;5.50;99.90;;;;;;5063717;28;20036;-84
2022/04/07 06:25:01;;;;;;;2.80;0.63;;;5.50;99.90;;;;;;5081278;28;20075;-82
2022/04/07 06:27:38;;;;;;;2.97;0.80;;;5.50;99.90;;;;;;5079255;28;20060;-84
2022/04/07 06:30:05;;;;;;;3.15;0.93;;;5.50;99.90;;;;;;5063932;28;20037;-83
2022/04/07 06:32:31;;;;;;;2.70;0.70;;;5.60;99.90;;;;;;5082218;28;20037;-83
2022/04/07 06:34:56;;;;;;;3.45;0.80;;;5.50;99.90;;;;;;5081367;28;20369;-83
2022/04/07 06:37:22;;;;;;;4.60;0.80;;;5.50;99.90;;;;;;5061651;28;20514;-83
2022/04/07 06:39:48;;;;;;;5.28;1.00;;;5.80;99.90;;;;;;5081752;28;20380;-83
2022/04/07 06:42:13;;;;;;;6.25;1.05;;;5.50;99.90;;;;;;5081625;28;20472;-83
2022/04/07 06:44:39;;;;;;;3.40;0.90;;;5.50;99.90;;;;;;5081949;28;20391;-83
2022/04/07 06:47:05;;;;;;;4.03;1.23;;;5.60;99.90;;;;;;5067598;28;20090;-84
2022/04/07 06:49:36;;;;;;;7.13;1.00;;;5.60;99.90;;;;;;5085457;28;20108;-83
2022/04/07 06:52:02;;;;;;;4.32;1.10;;;6.30;99.90;;;;;;5084065;28;20045;-83
2022/04/07 06:54:28;;;;;;;4.90;1.33;;;5.70;99.90;;;;;;5084107;28;20077;-83
2022/04/07 06:56:53;;;;;;;7.25;1.20;;;5.80;99.90;;;;;;5081295;28;20124;-84
2022/04/07 06:59:19;;;;;;;4.35;0.80;;;5.80;99.90;;;;;;5082947;28;20056;-84
2022/04/07 07:01:44;;;;;;;3.70;1.00;;;5.80;99.90;;;;;;5080322;28;20434;-83
2022/04/07 07:04:15;;;;;;;8.20;1.10;;;5.90;99.90;;;;;;5083010;28;20051;-83
2022/04/07 07:06:41;;;;;;;7.30;1.15;;;5.90;99.90;;;;;;5083390;28;20080;-83
2022/04/07 07:09:06;;;;;;;3.97;1.00;;;5.90;99.90;;;;;;5080011;28;20044;-83
2022/04/07 07:11:32;;;;;;;5.03;1.20;;;5.80;99.90;;;;;;5062512;28;20132;-83
2022/04/07 07:13:57;;;;;;;4.43;0.95;;;6.00;99.90;;;;;;5079074;28;20067;-83
2022/04/07 07:16:23;;;;;;;3.65;1.02;;;6.00;99.90;;;;;;5079126;28;20037;-83
2022/04/07 07:18:51;;;;;;;5.60;1.27;;;6.00;99.90;;;;;;5061054;28;20049;-83
2022/04/07 07:21:16;;;;;;;7.43;1.10;;;6.70;99.90;;;;;;5059715;28;20047;-83
2022/04/07 07:23:42;;;;;;;4.97;1.08;;;6.00;99.90;;;;;;5062256;28;20044;-83
2022/04/07 07:26:08;;;;;;;4.18;1.00;;;6.30;99.90;;;;;;5062703;28;20070;-83
2022/04/07 07:28:33;;;;;;;3.30;0.73;;;6.00;99.90;;;;;;5074836;28;20052;-83
2022/04/07 07:30:59;;;;;;;3.95;0.90;;;6.10;99.90;;;;;;5075125;28;20075;-83
2022/04/07 07:33:25;;;;;;;7.18;1.23;;;6.20;99.90;;;;;;5074467;28;20503;-84
2022/04/07 07:35:50;;;;;;;4.40;0.98;;;6.30;99.90;;;;;;5057793;28;20464;-84
2022/04/07 07:38:16;;;;;;;6.05;1.15;;;6.20;99.90;;;;;;5056742;28;20056;-83
2022/04/07 07:40:42;;;;;;;4.97;1.08;;;6.20;99.90;;;;;;5058770;28;20063;-84
2022/04/07 07:43:07;;;;;;;5.28;1.05;;;6.20;99.90;;;;;;5074277;28;20040;-84
2022/04/07 07:45:34;;;;;;;4.95;0.93;;;6.30;99.90;;;;;;5076200;28;20041;-84
2022/04/07 07:48:00;;;;;;;4.88;1.00;;;6.40;99.90;;;;;;5060849;28;20045;-84
2022/04/07 07:50:26;;;;;;;4.28;1.45;;;6.50;99.90;;;;;;5059366;28;20080;-84
2022/04/07 07:52:52;;;;;;;4.60;0.85;;;6.60;99.90;;;;;;5060118;28;20042;-83
2022/04/07 07:55:18;;;;;;;4.43;0.80;;;6.70;99.90;;;;;;5077098;28;20123;-83
2022/04/07 07:57:44;;;;;;;3.72;0.90;;;6.80;99.90;;;;;;5075956;28;20055;-83
2022/04/07 08:00:10;;;;;;;5.25;0.88;;;6.90;99.90;;;;;;5076363;28;20032;-83
2022/04/07 08:02:37;;;;;;;4.43;0.90;;;6.90;99.90;;;;;;5075363;28;20075;-83
2022/04/07 08:05:07;;;;;;;3.85;0.85;;;7.00;99.90;;;;;;5074404;28;20048;-83
2022/04/07 08:07:37;;;;;;;4.93;1.10;;;7.10;99.90;;;;;;5056507;28;20476;-83
2022/04/07 08:10:03;;;;;;;5.68;0.98;;;7.00;99.90;;;;;;5073195;28;20495;-83
2022/04/07 08:12:29;;;;;;;4.82;1.20;;;7.20;99.90;;;;;;5073637;28;20048;-83
2022/04/07 08:14:54;;;;;;;5.55;1.05;;;8.20;99.90;;;;;;5074489;28;20400;-83
2022/04/07 08:17:21;;;;;;;7.22;1.60;;;7.20;99.90;;;;;;5074191;28;20475;-83
2022/04/07 08:19:52;;;;;;;4.57;0.80;;;7.20;99.90;;;;;;5056419;28;20040;-84
2022/04/07 08:22:18;;;;;;;3.17;0.80;;;7.50;99.90;;;;;;5072536;28;20102;-83
2022/04/07 08:24:43;;;;;;;4.68;1.25;;;7.50;99.90;;;;;;5072638;28;20052;-83
2022/04/07 08:27:09;;;;;;;5.28;1.10;;;7.60;99.90;;;;;;5072375;28;20048;-83
2022/04/07 08:29:35;;;;;;;4.57;1.10;;;7.70;99.90;;;;;;5075082;28;20041;-83
2022/04/07 08:32:01;;;;;;;4.70;1.00;;;8.00;99.90;;;;;;5072223;28;20084;-83
2022/04/07 08:34:32;;;;;;;7.05;1.25;;;7.90;99.90;;;;;;5072511;28;20495;-83
2022/04/07 08:36:58;;;;;;;4.93;0.80;;;8.00;99.90;;;;;;5072885;28;20036;-83
2022/04/07 08:39:24;;;;;;;5.68;0.98;;;8.10;99.90;;;;;;5073050;28;20070;-83
2022/04/07 08:41:50;;;;;;;4.85;1.00;;;8.20;99.90;;;;;;5073057;28;20128;-83
2022/04/07 08:44:17;;;;;;;4.22;1.25;;;8.30;99.90;;;;;;5074474;28;20079;-83
2022/04/07 08:46:56;;;;;;;5.32;1.08;;;8.50;99.90;;;;;;5072502;28;20053;-84
2022/04/07 08:49:23;;;;;;;6.03;1.10;;;8.40;99.90;;;;;;5074563;28;20070;-83
2022/04/07 08:51:53;;;;;;;4.72;1.00;;;8.60;99.90;;;;;;5076269;28;20548;-83
2022/04/07 08:54:19;;;;;;;5.80;1.25;;;8.60;99.90;;;;;;5080075;28;20148;-84
2022/04/07 08:56:49;;;;;;;5.28;0.98;;;8.90;99.90;;;;;;5077201;28;20072;-83
2022/04/07 08:59:15;;;;;;;5.63;1.05;;;8.70;99.90;;;;;;5076514;28;20044;-83
2022/04/07 09:01:41;;;;;;;9.75;1.40;;;9.00;99.90;;;;;;5076535;28;20045;-84
2022/04/07 09:04:10;;;;;;;7.65;1.33;;;8.90;99.90;;;;;;5077999;28;20403;-83
2022/04/07 09:06:38;;;;;;;7.30;1.25;;;8.90;99.90;;;;;;5083009;28;20123;-83
2022/04/07 09:09:22;;;;;;;7.00;1.67;;;9.90;99.90;;;;;;5080701;28;20044;-82
2022/04/07 09:11:57;;;;;;;7.55;1.60;;;9.10;99.90;;;;;;5061582;28;20083;-83
2022/04/07 09:14:24;;;;;;;10.75;1.60;;;9.00;99.90;;;;;;5076898;28;20098;-83
2022/04/07 09:16:57;;;;;;;10.77;1.85;;;9.70;99.90;;;;;;5077040;28;20049;-83
2022/04/07 09:19:23;;;;;;;8.57;1.38;;;9.10;99.90;;;;;;5076062;28;20040;-83
2022/04/07 09:22:13;;;;;;;6.50;1.50;;;9.30;99.90;;;;;;5075980;28;20229;-84
2022/04/07 09:24:41;;;;;;;7.28;1.40;;;9.40;99.90;;;;;;5076305;28;20564;-83
2022/04/07 09:27:12;;;;;;;9.93;1.90;;;9.50;99.90;;;;;;5085973;28;20056;-83
2022/04/07 09:29:43;;;;;;;8.13;1.83;;;10.00;99.90;;;;;;5084762;28;20056;-83
2022/04/07 09:32:25;;;;;;;7.70;1.55;;;9.30;99.90;;;;;;5077484;28;20127;-83
2022/04/07 09:34:56;;;;;;;11.02;1.70;;;9.60;99.90;;;;;;5076017;28;20044;-83
2022/04/07 09:37:23;;;;;;;10.32;1.90;;;9.50;99.90;;;;;;5076423;28;20059;-83
2022/04/07 09:40:09;;;;;;;7.70;1.80;;;9.30;99.90;;;;;;5076369;28;20052;-83
2022/04/07 09:42:35;;;;;;;8.40;2.65;;;9.40;99.90;;;;;;5075914;28;20105;-83
2022/04/07 09:45:03;;;;;;;8.63;1.98;;;9.40;99.90;;;;;;5076094;28;20178;-83
2022/04/07 09:47:46;;;;;;;10.55;1.80;;;9.50;99.90;;;;;;5076752;28;20048;-83
2022/04/07 09:50:29;;;;;;;8.43;2.20;;;9.50;99.90;;;;;;5059068;28;20395;-83
2022/04/07 09:53:05;;;;;;;10.82;2.05;;;9.40;99.90;;;;;;5078276;28;20049;-83
2022/04/07 09:55:37;;;;;;;;;;;9.40;99.90;;;;;;5076558;28;20048;-83
2022/04/07 09:58:06;;;;;;;7.63;2.50;;;9.30;99.90;;;;;;5076012;28;20302;-83
2022/04/07 10:00:32;;;;;;;9.18;2.10;;;9.20;99.90;;;;;;5076087;28;20053;-83
2022/04/07 10:02:58;;;;;;;9.65;3.03;;;9.00;99.90;;;;;;5076233;28;20041;-83
2022/04/07 10:05:25;;;;;;;8.00;2.22;;;9.00;99.90;;;;;;5059526;28;20097;-83
2022/04/07 10:07:51;;;;;;;10.02;1.90;;;9.10;99.90;;;;;;5076497;28;20094;-83
2022/04/07 10:10:18;;;;;;;8.80;1.83;;;9.20;99.90;;;;;;5079045;28;20044;-83
2022/04/07 10:12:45;;;;;;;7.50;1.83;;;9.30;99.90;;;;;;5063808;28;20052;-82
2022/04/07 10:15:11;;;;;;;13.15;2.65;;;10.40;99.90;;;;;;5079413;28;20476;-83
2022/04/07 10:17:38;;;;;;;11.52;1.90;;;8.90;99.90;;;;;;5077116;28;20131;-84
2022/04/07 10:20:08;;;;;;;11.20;2.05;;;9.10;99.90;;;;;;5076957;28;20127;-83
2022/04/07 10:22:43;;;;;;;10.48;2.42;;;9.10;99.90;;;;;;5063816;28;20052;-83
2022/04/07 10:25:09;;;;;;;6.13;1.77;;;9.00;99.90;;;;;;5079784;28;20049;-83
2022/04/07 10:27:53;;;;;;;10.27;1.83;;;8.90;99.90;;;;;;5079690;28;20048;-82
2022/04/07 10:30:20;;;;;;;13.35;1.88;;;8.90;99.90;;;;;;5080080;28;20074;-83
2022/04/07 10:32:56;;;;;;;13.88;2.03;;;9.70;99.90;;;;;;5081129;28;20093;-83
2022/04/07 10:35:37;;;;;;;10.95;1.90;;;8.80;99.90;;;;;;5079554;28;20062;-82
2022/04/07 10:38:07;;;;;;;11.68;2.33;;;8.80;99.90;;;;;;5079804;28;20045;-83
2022/04/07 10:40:48;;;;;;;12.23;2.55;;;8.70;99.90;;;;;;5076847;28;20544;-83
2022/04/07 10:43:14;;;;;;;12.30;2.53;;;8.50;99.90;;;;;;5062321;28;20100;-82
2022/04/07 10:45:41;;;;;;;8.45;2.30;;;8.60;99.90;;;;;;5076703;28;20565;-83
2022/04/07 10:48:26;;;;;;;14.02;3.03;;;8.40;99.90;;;;;;5078405;28;20037;-83
2022/04/07 10:51:00;;;;;;;11.10;2.50;;;8.20;99.90;;;;;;5076392;28;20522;-82
2022/04/07 10:53:30;;;;;;;17.40;3.23;;;8.30;99.90;;;;;;5076446;28;20041;-82
2022/04/07 10:55:58;;;;;;;9.98;2.63;;;8.50;99.90;;;;;;5075795;28;20340;-83
2022/04/07 10:58:51;;;;;;;12.25;2.53;;;8.90;99.90;;;;;;5075672;28;20041;-83
2022/04/07 11:01:30;;;;;;;12.80;2.90;;;8.60;99.90;;;;;;5076694;28;20052;-83
2022/04/07 11:04:18;;;;;;;15.02;2.25;;;9.10;99.90;;;;;;5075190;28;20052;-83
2022/04/07 11:07:02;;;;;;;9.93;2.70;;;9.30;99.90;;;;;;5075792;28;20082;-83
2022/04/07 11:09:49;;;;;;;11.02;2.08;;;9.60;99.90;;;;;;5075094;28;20079;-84
2022/04/07 11:12:19;;;;;;;8.80;2.30;;;9.80;99.90;;;;;;5074851;28;20044;-83
2022/04/07 11:14:46;;;;;;;10.55;2.00;;;9.80;99.90;;;;;;5078117;28;20044;-83
2022/04/07 11:17:52;;;;;;;10.15;2.10;;;9.70;99.90;;;;;;5062317;28;20460;-83
2022/04/07 11:20:25;;;;;;;11.90;2.10;;;9.70;99.90;;;;;;5076387;28;20048;-83
2022/04/07 11:23:12;;;;;;;10.45;2.40;;;9.60;99.90;;;;;;5059606;28;20070;-84
2022/04/07 11:25:39;;;;;;;15.82;2.53;;;9.70;99.90;;;;;;5076316;28;20404;-84
2022/04/07 11:28:07;;;;;;;9.73;2.53;;;9.50;99.90;;;;;;5073925;28;20053;-84
2022/04/07 11:31:04;;;;;;;14.07;2.70;;;9.70;99.90;;;;;;5076343;28;20048;-84
2022/04/07 11:33:37;;;;;;;10.65;2.35;;;9.70;99.90;;;;;;5076402;28;20048;-84
2022/04/07 11:36:11;;;;;;;5.95;1.83;;;10.20;99.90;;;;;;5058037;28;20054;-84
2022/04/07 11:38:42;;;;;;;12.13;2.45;;;9.70;99.90;;;;;;5074048;28;20059;-84
2022/04/07 11:41:14;;;;;;;8.20;2.20;;;9.70;99.90;;;;;;5073823;28;20052;-84
2022/04/07 11:43:44;;;;;;;10.68;2.63;;;9.80;99.90;;;;;;5074306;28;20129;-84
2022/04/07 11:46:13;;;;;;;11.82;2.22;;;10.10;99.90;;;;;;5074776;28;20052;-84
2022/04/07 11:48:40;;;;;;;10.63;2.00;;;10.30;99.90;;;;;;5057588;28;20181;-84
2022/04/07 11:51:11;;;;;;;8.68;1.63;;;10.30;99.90;;;;;;5074055;28;20051;-84
2022/04/07 11:53:52;;;;;;;13.82;2.65;;;10.50;99.90;;;;;;5057436;28;20103;-84
2022/04/07 11:56:31;;;;;;;14.07;2.55;;;10.40;99.90;;;;;;5074410;28;20051;-84
2022/04/07 11:59:01;;;;;;;9.60;2.25;;;10.40;99.90;;;;;;5076073;28;20048;-84
2022/04/07 12:01:28;;;;;;;9.65;2.03;;;10.60;99.90;;;;;;5073530;28;20488;-84
2022/04/07 12:04:00;;;;;;;12.05;2.03;;;10.60;99.90;;;;;;5074698;28;20037;-85
2022/04/07 12:06:31;;;;;;;10.90;2.28;;;11.50;99.90;;;;;;5074080;28;20040;-84
2022/04/07 12:08:57;;;;;;;7.00;1.67;;;11.60;99.90;;;;;;5074536;28;20087;-84
2022/04/07 12:11:25;;;;;;;8.32;1.80;;;10.70;99.90;;;;;;5074451;28;20052;-84
2022/04/07 12:13:53;;;;;;;9.27;1.70;;;10.70;99.90;;;;;;5074436;28;20128;-84
2022/04/07 12:16:24;;;;;;;9.95;1.67;;;10.60;99.90;;;;;;5074386;28;20123;-84
2022/04/07 12:18:58;;;;;;;7.60;1.63;;;10.30;99.90;;;;;;5074102;28;20379;-84
2022/04/07 12:21:25;;;;;;;10.63;1.98;;;9.90;99.90;;;;;;5073962;28;20053;-84
2022/04/07 12:24:13;;;;;;;10.60;1.77;;;9.90;99.90;;;;;;5076339;28;20400;-84
2022/04/07 12:27:03;;;;;;;8.77;2.05;;;9.40;99.90;;;;;;5078539;28;20639;-84
2022/04/07 12:29:31;;;;;;;8.38;1.52;;;9.20;99.90;;;;;;5078616;28;20139;-83
2022/04/07 12:32:02;;;;;;;9.50;1.50;;;8.80;99.90;;;;;;5080391;28;20052;-83
2022/04/07 12:34:28;;;;;;;7.25;1.40;;;8.10;99.90;;;;;;5079110;28;20040;-83
2022/04/07 12:36:55;;;;;;;5.65;1.48;;;7.50;99.90;;;;;;5078718;28;20127;-83
2022/04/07 12:39:21;;;;;;;4.68;1.30;;;7.40;99.90;;;;;;5083161;28;20147;-82
2022/04/07 12:41:50;;;;;;;8.27;1.50;;;7.20;99.90;;;;;;5089478;28;20504;-83
2022/04/07 12:44:43;;;;;;;9.55;1.95;;;7.70;99.90;;;;;;5086363;28;20084;-83
2022/04/07 12:47:14;;;;;;;9.25;1.73;;;7.30;99.90;;;;;;5090596;28;20048;-83
2022/04/07 12:49:52;;;;;;;8.40;1.92;;;7.90;99.90;;;;;;5087663;28;20100;-83
2022/04/07 12:52:19;;;;;;;14.27;2.38;;;7.80;99.90;;;;;;5085413;28;20059;-83
2022/04/07 12:55:04;;;;;;;8.95;1.70;;;8.30;99.90;;;;;;5087634;28;20396;-83
2022/04/07 12:57:32;;;;;;;6.07;1.15;;;7.90;99.90;;;;;;5087889;28;20055;-83